sensor_id;sensor_type;location;lat;lon;timestamp;pressure;altitude;pressure_sealevel;temperature;humidity
14343;BME280;7255;53.596;9.960;2023-05-14T00:01:17;101816.03;;;12.61;nan
14343;BME280;7255;53.596;9.960;2023-05-14T00:03:44;101814.81;;;12.50;nan
14343;BME280;7255;53.596;9.960;2023-05-14T00:06:10;101812.34;;;12.49;nan
14343;BME280;7255;53.596;9.960;2023-05-14T00:08:36;101808.62;;;12.50;nan
14343;BME280;7255;53.596;9.960;2023-05-14T00:11:03;101798.69;;;12.44;nan
14343;BME280;7255;53.596;9.960;2023-05-14T00:13:29;101802.44;;;12.29;nan
14343;BME280;7255;53.596;9.960;2023-05-14T00:15:56;101797.06;;;12.29;nan
14343;BME280;7255;53.596;9.960;2023-05-14T00:18:24;101796.19;;;12.36;nan
14343;BME280;7255;53.596;9.960;2023-05-14T00:20:50;101795.41;;;12.22;nan
14343;BME280;7255;53.596;9.960;2023-05-14T00:23:18;101793.78;;;12.07;nan
14343;BME280;7255;53.596;9.960;2023-05-14T00:25:45;101791.28;;;12.12;nan
14343;BME280;7255;53.596;9.960;2023-05-14T00:28:11;101784.66;;;12.02;nan
14343;BME280;7255;53.596;9.960;2023-05-14T00:30:38;101787.13;;;11.97;nan
14343;BME280;7255;53.596;9.960;2023-05-14T00:33:04;101779.44;;;11.80;nan
14343;BME280;7255;53.596;9.960;2023-05-14T00:35:32;101776.31;;;11.70;nan
14343;BME280;7255;53.596;9.960;2023-05-14T00:37:59;101778.81;;;11.65;nan
14343;BME280;7255;53.596;9.960;2023-05-14T00:40:26;101778.00;;;11.84;nan
14343;BME280;7255;53.596;9.960;2023-05-14T00:42:53;101777.16;;;11.77;nan
14343;BME280;7255;53.596;9.960;2023-05-14T00:45:20;101770.94;;;11.70;nan
14343;BME280;7255;53.596;9.960;2023-05-14T00:47:46;101774.69;;;11.82;nan
14343;BME280;7255;53.596;9.960;2023-05-14T00:50:13;101763.91;;;11.69;nan
14343;BME280;7255;53.596;9.960;2023-05-14T00:52:41;101774.69;;;11.69;nan
14343;BME280;7255;53.596;9.960;2023-05-14T00:55:08;101761.84;;;11.58;nan
14343;BME280;7255;53.596;9.960;2023-05-14T00:57:37;101771.78;;;11.64;nan
14343;BME280;7255;53.596;9.960;2023-05-14T01:00:06;101765.56;;;11.70;nan
14343;BME280;7255;53.596;9.960;2023-05-14T01:02:32;101763.47;;;11.72;nan
14343;BME280;7255;53.596;9.960;2023-05-14T01:04:59;101764.75;;;11.56;nan
14343;BME280;7255;53.596;9.960;2023-05-14T01:07:29;101774.66;;;11.55;nan
14343;BME280;7255;53.596;9.960;2023-05-14T01:10:02;101775.50;;;11.63;nan
14343;BME280;7255;53.596;9.960;2023-05-14T01:12:34;101769.69;;;11.59;nan
14343;BME280;7255;53.596;9.960;2023-05-14T01:15:09;101776.75;;;11.67;nan
14343;BME280;7255;53.596;9.960;2023-05-14T01:17:39;101771.97;;;11.62;nan
14343;BME280;7255;53.596;9.960;2023-05-14T01:20:07;101773.84;;;11.55;nan
14343;BME280;7255;53.596;9.960;2023-05-14T01:22:35;101773.84;;;11.68;nan
14343;BME280;7255;53.596;9.960;2023-05-14T01:25:01;101782.13;;;11.47;nan
14343;BME280;7255;53.596;9.960;2023-05-14T01:27:31;101763.06;;;11.48;nan
14343;BME280;7255;53.596;9.960;2023-05-14T01:30:05;101777.56;;;11.74;nan
14343;BME280;7255;53.596;9.960;2023-05-14T01:32:34;101779.22;;;11.75;nan
14343;BME280;7255;53.596;9.960;2023-05-14T01:35:02;101772.19;;;11.67;nan
14343;BME280;7255;53.596;9.960;2023-05-14T01:37:30;101781.31;;;11.60;nan
14343;BME280;7255;53.596;9.960;2023-05-14T01:39:59;101762.66;;;11.51;nan
14343;BME280;7255;53.596;9.960;2023-05-14T01:42:26;101762.25;;;11.68;nan
14343;BME280;7255;53.596;9.960;2023-05-14T01:44:53;101767.25;;;11.91;nan
14343;BME280;7255;53.596;9.960;2023-05-14T01:47:20;101762.69;;;11.78;nan
14343;BME280;7255;53.596;9.960;2023-05-14T01:49:46;101770.53;;;11.66;nan
14343;BME280;7255;53.596;9.960;2023-05-14T01:52:13;101771.81;;;11.97;nan
14343;BME280;7255;53.596;9.960;2023-05-14T01:54:39;101768.06;;;11.91;nan
14343;BME280;7255;53.596;9.960;2023-05-14T01:57:06;101770.13;;;11.83;nan
14343;BME280;7255;53.596;9.960;2023-05-14T01:59:33;101756.84;;;11.81;nan
14343;BME280;7255;53.596;9.960;2023-05-14T02:01:59;101769.28;;;11.75;nan
14343;BME280;7255;53.596;9.960;2023-05-14T02:04:26;101752.31;;;11.75;nan
14343;BME280;7255;53.596;9.960;2023-05-14T02:06:52;101761.81;;;11.78;nan
14343;BME280;7255;53.596;9.960;2023-05-14T02:09:18;101770.13;;;11.89;nan
14343;BME280;7255;53.596;9.960;2023-05-14T02:11:45;101765.16;;;11.73;nan
14343;BME280;7255;53.596;9.960;2023-05-14T02:14:12;101766.81;;;11.67;nan
14343;BME280;7255;53.596;9.960;2023-05-14T02:16:39;101755.63;;;11.70;nan
14343;BME280;7255;53.596;9.960;2023-05-14T02:19:06;101775.50;;;11.69;nan
14343;BME280;7255;53.596;9.960;2023-05-14T02:21:32;101767.22;;;11.71;nan
14343;BME280;7255;53.596;9.960;2023-05-14T02:23:58;101769.28;;;11.62;nan
14343;BME280;7255;53.596;9.960;2023-05-14T02:26:25;101756.03;;;11.54;nan
14343;BME280;7255;53.596;9.960;2023-05-14T02:28:51;101758.09;;;11.45;nan
14343;BME280;7255;53.596;9.960;2023-05-14T02:31:19;101765.94;;;11.33;nan
14343;BME280;7255;53.596;9.960;2023-05-14T02:33:45;101756.88;;;11.41;nan
14343;BME280;7255;53.596;9.960;2023-05-14T02:36:11;101759.34;;;11.36;nan
14343;BME280;7255;53.596;9.960;2023-05-14T02:38:37;101748.56;;;11.36;nan
14343;BME280;7255;53.596;9.960;2023-05-14T02:41:04;101752.72;;;11.32;nan
14343;BME280;7255;53.596;9.960;2023-05-14T02:43:30;101751.66;;;11.33;nan
14343;BME280;7255;53.596;9.960;2023-05-14T02:45:57;101743.16;;;11.29;nan
14343;BME280;7255;53.596;9.960;2023-05-14T02:48:24;101739.44;;;11.24;nan
14343;BME280;7255;53.596;9.960;2023-05-14T02:50:51;101736.13;;;11.22;nan
14343;BME280;7255;53.596;9.960;2023-05-14T02:53:17;101736.97;;;11.29;nan
14343;BME280;7255;53.596;9.960;2023-05-14T02:55:43;101747.31;;;11.39;nan
14343;BME280;7255;53.596;9.960;2023-05-14T02:58:10;101744.84;;;11.44;nan
14343;BME280;7255;53.596;9.960;2023-05-14T03:00:36;101744.03;;;11.43;nan
14343;BME280;7255;53.596;9.960;2023-05-14T03:03:02;101749.38;;;11.23;nan
14343;BME280;7255;53.596;9.960;2023-05-14T03:05:30;101745.63;;;11.24;nan
14343;BME280;7255;53.596;9.960;2023-05-14T03:07:57;101741.09;;;11.25;nan
14343;BME280;7255;53.596;9.960;2023-05-14T03:10:23;101744.41;;;11.27;nan
14343;BME280;7255;53.596;9.960;2023-05-14T03:12:49;101743.56;;;11.20;nan
14343;BME280;7255;53.596;9.960;2023-05-14T03:15:16;101740.25;;;11.17;nan
14343;BME280;7255;53.596;9.960;2023-05-14T03:17:42;101742.34;;;11.15;nan
14343;BME280;7255;53.596;9.960;2023-05-14T03:20:09;101741.84;;;10.98;nan
14343;BME280;7255;53.596;9.960;2023-05-14T03:22:37;101748.47;;;10.96;nan
14343;BME280;7255;53.596;9.960;2023-05-14T03:25:04;101744.78;;;11.04;nan
14343;BME280;7255;53.596;9.960;2023-05-14T03:27:31;101742.28;;;10.95;nan
14343;BME280;7255;53.596;9.960;2023-05-14T03:29:57;101745.59;;;10.97;nan
14343;BME280;7255;53.596;9.960;2023-05-14T03:32:24;101748.50;;;11.09;nan
14343;BME280;7255;53.596;9.960;2023-05-14T03:34:50;101739.38;;;10.97;nan
14343;BME280;7255;53.596;9.960;2023-05-14T03:37:16;101742.25;;;10.89;nan
14343;BME280;7255;53.596;9.960;2023-05-14T03:39:44;101738.16;;;11.00;nan
14343;BME280;7255;53.596;9.960;2023-05-14T03:42:10;101739.78;;;10.94;nan
14343;BME280;7255;53.596;9.960;2023-05-14T03:44:36;101724.03;;;10.91;nan
14343;BME280;7255;53.596;9.960;2023-05-14T03:47:03;101739.78;;;10.94;nan
14343;BME280;7255;53.596;9.960;2023-05-14T03:49:29;101743.91;;;10.90;nan
14343;BME280;7255;53.596;9.960;2023-05-14T03:51:56;101748.47;;;10.96;nan
14343;BME280;7255;53.596;9.960;2023-05-14T03:54:23;101755.06;;;10.93;nan
14343;BME280;7255;53.596;9.960;2023-05-14T03:56:51;101748.91;;;11.00;nan
14343;BME280;7255;53.596;9.960;2023-05-14T03:59:17;101746.44;;;11.05;nan
14343;BME280;7255;53.596;9.960;2023-05-14T04:01:43;101746.44;;;11.05;nan
14343;BME280;7255;53.596;9.960;2023-05-14T04:04:10;101740.25;;;11.24;nan
14343;BME280;7255;53.596;9.960;2023-05-14T04:06:36;101756.81;;;11.28;nan
14343;BME280;7255;53.596;9.960;2023-05-14T04:09:02;101741.94;;;11.32;nan
14343;BME280;7255;53.596;9.960;2023-05-14T04:11:29;101741.53;;;11.35;nan
14343;BME280;7255;53.596;9.960;2023-05-14T04:13:56;101747.75;;;11.42;nan
14343;BME280;7255;53.596;9.960;2023-05-14T04:16:23;101741.53;;;11.42;nan
14343;BME280;7255;53.596;9.960;2023-05-14T04:18:49;101739.91;;;11.54;nan
14343;BME280;7255;53.596;9.960;2023-05-14T04:21:15;101753.56;;;11.52;nan
14343;BME280;7255;53.596;9.960;2023-05-14T04:23:41;101751.06;;;11.64;nan
14343;BME280;7255;53.596;9.960;2023-05-14T04:26:08;101748.59;;;11.76;nan
14343;BME280;7255;53.596;9.960;2023-05-14T04:28:34;101750.25;;;11.84;nan
14343;BME280;7255;53.596;9.960;2023-05-14T04:31:02;101753.97;;;11.89;nan
14343;BME280;7255;53.596;9.960;2023-05-14T04:33:28;101756.47;;;11.98;nan
14343;BME280;7255;53.596;9.960;2023-05-14T04:35:55;101753.34;;;12.21;nan
14343;BME280;7255;53.596;9.960;2023-05-14T04:38:21;101756.78;;;12.48;nan
14343;BME280;7255;53.596;9.960;2023-05-14T04:40:48;101761.03;;;12.76;nan
14343;BME280;7255;53.596;9.960;2023-05-14T04:43:14;101757.34;;;13.08;nan
14343;BME280;7255;53.596;9.960;2023-05-14T04:45:40;101767.62;;;13.25;nan
14343;BME280;7255;53.596;9.960;2023-05-14T04:48:08;101770.81;;;13.54;nan
14343;BME280;7255;53.596;9.960;2023-05-14T04:50:34;101758.63;;;13.70;nan
14343;BME280;7255;53.596;9.960;2023-05-14T04:53:01;101770.25;;;13.70;nan
14343;BME280;7255;53.596;9.960;2023-05-14T04:55:27;101769.81;;;13.73;nan
14343;BME280;7255;53.596;9.960;2023-05-14T04:57:54;101766.50;;;13.71;nan
14343;BME280;7255;53.596;9.960;2023-05-14T05:00:20;101773.56;;;13.72;nan
14343;BME280;7255;53.596;9.960;2023-05-14T05:02:47;101777.25;;;13.78;nan
14343;BME280;7255;53.596;9.960;2023-05-14T05:05:14;101771.09;;;13.71;nan
14343;BME280;7255;53.596;9.960;2023-05-14T05:07:41;101772.84;;;13.58;nan
14343;BME280;7255;53.596;9.960;2023-05-14T05:10:08;101766.25;;;13.47;nan
14343;BME280;7255;53.596;9.960;2023-05-14T05:12:34;101759.63;;;13.50;nan
14343;BME280;7255;53.596;9.960;2023-05-14T05:15:00;101769.53;;;13.56;nan
14343;BME280;7255;53.596;9.960;2023-05-14T05:17:28;101766.53;;;13.64;nan
14343;BME280;7255;53.596;9.960;2023-05-14T05:19:54;101763.97;;;13.76;nan
14343;BME280;7255;53.596;9.960;2023-05-14T05:22:23;101766.75;;;13.88;nan
14343;BME280;7255;53.596;9.960;2023-05-14T05:24:49;101769.59;;;14.00;nan
14343;BME280;7255;53.596;9.960;2023-05-14T05:27:15;101765.72;;;14.14;nan
14343;BME280;7255;53.596;9.960;2023-05-14T05:29:42;101762.69;;;14.22;nan
14343;BME280;7255;53.596;9.960;2023-05-14T05:32:09;101771.28;;;14.38;nan
14343;BME280;7255;53.596;9.960;2023-05-14T05:34:35;101771.12;;;14.51;nan
14343;BME280;7255;53.596;9.960;2023-05-14T05:37:01;101779.84;;;14.53;nan
14343;BME280;7255;53.596;9.960;2023-05-14T05:39:31;101773.50;;;14.66;nan
14343;BME280;7255;53.596;9.960;2023-05-14T05:41:59;101775.78;;;14.81;nan
14343;BME280;7255;53.596;9.960;2023-05-14T05:44:25;101778.22;;;14.89;nan
14343;BME280;7255;53.596;9.960;2023-05-14T05:46:51;101789.66;;;15.03;nan
14343;BME280;7255;53.596;9.960;2023-05-14T05:49:20;101786.81;;;14.98;nan
14343;BME280;7255;53.596;9.960;2023-05-14T05:51:46;101789.97;;;15.13;nan
14343;BME280;7255;53.596;9.960;2023-05-14T05:54:13;101787.06;;;15.38;nan
14343;BME280;7255;53.596;9.960;2023-05-14T05:56:41;101783.84;;;15.60;nan
14343;BME280;7255;53.596;9.960;2023-05-14T05:59:07;101788.41;;;15.90;nan
14343;BME280;7255;53.596;9.960;2023-05-14T06:01:34;101791.00;;;16.08;nan
14343;BME280;7255;53.596;9.960;2023-05-14T06:04:00;101796.19;;;16.22;nan
14343;BME280;7255;53.596;9.960;2023-05-14T06:06:27;101797.34;;;16.26;nan
14343;BME280;7255;53.596;9.960;2023-05-14T06:08:54;101800.16;;;16.54;nan
14343;BME280;7255;53.596;9.960;2023-05-14T06:11:20;101794.84;;;16.48;nan
14343;BME280;7255;53.596;9.960;2023-05-14T06:13:48;101796.31;;;16.79;nan
14343;BME280;7255;53.596;9.960;2023-05-14T06:16:14;101791.12;;;16.89;nan
14343;BME280;7255;53.596;9.960;2023-05-14T06:18:40;101801.72;;;17.03;nan
14343;BME280;7255;53.596;9.960;2023-05-14T06:21:07;101796.28;;;17.03;nan
14343;BME280;7255;53.596;9.960;2023-05-14T06:23:33;101802.97;;;17.41;nan
14343;BME280;7255;53.596;9.960;2023-05-14T06:25:59;101808.72;;;17.27;nan
14343;BME280;7255;53.596;9.960;2023-05-14T06:28:25;101797.78;;;17.10;nan
14343;BME280;7255;53.596;9.960;2023-05-14T06:30:53;101802.75;;;17.30;nan
14343;BME280;7255;53.596;9.960;2023-05-14T06:33:20;101802.63;;;17.37;nan
14343;BME280;7255;53.596;9.960;2023-05-14T06:35:53;101805.34;;;17.54;nan
14343;BME280;7255;53.596;9.960;2023-05-14T06:38:20;101801.50;;;17.84;nan
14343;BME280;7255;53.596;9.960;2023-05-14T06:40:46;101808.62;;;18.02;nan
14343;BME280;7255;53.596;9.960;2023-05-14T06:43:12;101803.00;;;18.08;nan
14343;BME280;7255;53.596;9.960;2023-05-14T06:45:38;101792.13;;;18.08;nan
14343;BME280;7255;53.596;9.960;2023-05-14T06:48:06;101791.00;;;18.04;nan
14343;BME280;7255;53.596;9.960;2023-05-14T06:50:34;101804.03;;;18.02;nan
14343;BME280;7255;53.596;9.960;2023-05-14T06:53:00;101792.47;;;18.12;nan
14343;BME280;7255;53.596;9.960;2023-05-14T06:55:26;101792.47;;;18.12;nan
14343;BME280;7255;53.596;9.960;2023-05-14T06:57:53;101795.38;;;18.27;nan
14343;BME280;7255;53.596;9.960;2023-05-14T07:00:20;101786.53;;;18.15;nan
14343;BME280;7255;53.596;9.960;2023-05-14T07:02:47;101786.22;;;18.12;nan
14343;BME280;7255;53.596;9.960;2023-05-14T07:05:14;101801.53;;;18.01;nan
14343;BME280;7255;53.596;9.960;2023-05-14T07:07:41;101786.22;;;18.12;nan
14343;BME280;7255;53.596;9.960;2023-05-14T07:10:07;101786.22;;;18.12;nan
14343;BME280;7255;53.596;9.960;2023-05-14T07:12:33;101781.16;;;18.42;nan
14343;BME280;7255;53.596;9.960;2023-05-14T07:15:00;101786.25;;;18.56;nan
14343;BME280;7255;53.596;9.960;2023-05-14T07:17:26;101788.22;;;18.60;nan
14343;BME280;7255;53.596;9.960;2023-05-14T07:19:52;101784.84;;;18.75;nan
14343;BME280;7255;53.596;9.960;2023-05-14T07:22:21;101777.22;;;18.72;nan
14343;BME280;7255;53.596;9.960;2023-05-14T07:24:47;101780.91;;;18.83;nan
14343;BME280;7255;53.596;9.960;2023-05-14T07:27:14;101784.59;;;18.99;nan
14343;BME280;7255;53.596;9.960;2023-05-14T07:29:42;101781.19;;;19.09;nan
14343;BME280;7255;53.596;9.960;2023-05-14T07:32:08;101782.69;;;19.21;nan
14343;BME280;7255;53.596;9.960;2023-05-14T07:34:35;101777.81;;;19.29;nan
14343;BME280;7255;53.596;9.960;2023-05-14T07:37:01;101770.81;;;19.33;nan
14343;BME280;7255;53.596;9.960;2023-05-14T07:39:29;101770.41;;;19.51;nan
14343;BME280;7255;53.596;9.960;2023-05-14T07:41:55;101772.63;;;19.54;nan
14343;BME280;7255;53.596;9.960;2023-05-14T07:44:22;101778.97;;;19.33;nan
14343;BME280;7255;53.596;9.960;2023-05-14T07:46:48;101757.06;;;18.95;nan
14343;BME280;7255;53.596;9.960;2023-05-14T07:49:14;101761.28;;;19.08;nan
14343;BME280;7255;53.596;9.960;2023-05-14T07:51:41;101768.59;;;19.30;nan
14343;BME280;7255;53.596;9.960;2023-05-14T07:54:07;101767.19;;;19.59;nan
14343;BME280;7255;53.596;9.960;2023-05-14T07:56:35;101754.97;;;19.99;nan
14343;BME280;7255;53.596;9.960;2023-05-14T07:59:01;101767.66;;;20.21;nan
14343;BME280;7255;53.596;9.960;2023-05-14T08:01:28;101755.66;;;20.17;nan
14343;BME280;7255;53.596;9.960;2023-05-14T08:03:55;101754.47;;;20.03;nan
14343;BME280;7255;53.596;9.960;2023-05-14T08:06:21;101746.63;;;20.11;nan
14343;BME280;7255;53.596;9.960;2023-05-14T08:08:47;101752.16;;;20.32;nan
14343;BME280;7255;53.596;9.960;2023-05-14T08:11:14;101757.75;;;20.57;nan
14343;BME280;7255;53.596;9.960;2023-05-14T08:13:41;101750.88;;;20.55;nan
14343;BME280;7255;53.596;9.960;2023-05-14T08:16:08;101751.78;;;20.66;nan
14343;BME280;7255;53.596;9.960;2023-05-14T08:18:34;101760.25;;;20.64;nan
14343;BME280;7255;53.596;9.960;2023-05-14T08:21:01;101755.91;;;20.79;nan
14343;BME280;7255;53.596;9.960;2023-05-14T08:23:27;101753.25;;;20.94;nan
14343;BME280;7255;53.596;9.960;2023-05-14T08:25:53;101752.72;;;21.07;nan
14343;BME280;7255;53.596;9.960;2023-05-14T08:28:20;101739.34;;;21.16;nan
14343;BME280;7255;53.596;9.960;2023-05-14T08:30:47;101740.16;;;21.37;nan
14343;BME280;7255;53.596;9.960;2023-05-14T08:33:14;101749.47;;;21.26;nan
14343;BME280;7255;53.596;9.960;2023-05-14T08:35:40;101742.34;;;21.30;nan
14343;BME280;7255;53.596;9.960;2023-05-14T08:38:06;101738.28;;;21.32;nan
14343;BME280;7255;53.596;9.960;2023-05-14T08:40:33;101734.44;;;21.33;nan
14343;BME280;7255;53.596;9.960;2023-05-14T08:42:59;101733.88;;;21.37;nan
14343;BME280;7255;53.596;9.960;2023-05-14T08:45:28;101735.81;;;21.41;nan
14343;BME280;7255;53.596;9.960;2023-05-14T08:47:59;101733.88;;;21.26;nan
14343;BME280;7255;53.596;9.960;2023-05-14T08:50:29;101735.03;;;21.51;nan
14343;BME280;7255;53.596;9.960;2023-05-14T08:52:56;101734.19;;;21.61;nan
14343;BME280;7255;53.596;9.960;2023-05-14T08:55:22;101724.09;;;21.51;nan
14343;BME280;7255;53.596;9.960;2023-05-14T08:57:50;101721.59;;;21.44;nan
14343;BME280;7255;53.596;9.960;2023-05-14T09:00:16;101707.91;;;21.44;nan
14343;BME280;7255;53.596;9.960;2023-05-14T09:02:43;101712.84;;;21.27;nan
14343;BME280;7255;53.596;9.960;2023-05-14T09:05:13;101714.50;;;21.38;nan
14343;BME280;7255;53.596;9.960;2023-05-14T09:07:40;101708.50;;;21.51;nan
14343;BME280;7255;53.596;9.960;2023-05-14T09:10:07;101711.47;;;21.70;nan
14343;BME280;7255;53.596;9.960;2023-05-14T09:12:34;101704.84;;;21.97;nan
14343;BME280;7255;53.596;9.960;2023-05-14T09:15:00;101712.78;;;21.99;nan
14343;BME280;7255;53.596;9.960;2023-05-14T09:17:27;101711.41;;;22.01;nan
14343;BME280;7255;53.596;9.960;2023-05-14T09:19:53;101704.56;;;22.04;nan
14343;BME280;7255;53.596;9.960;2023-05-14T09:22:22;101711.59;;;22.30;nan
14343;BME280;7255;53.596;9.960;2023-05-14T09:25:01;101712.72;;;22.19;nan
14343;BME280;7255;53.596;9.960;2023-05-14T09:27:29;101700.94;;;22.29;nan
14343;BME280;7255;53.596;9.960;2023-05-14T09:30:03;101698.50;;;22.17;nan
14343;BME280;7255;53.596;9.960;2023-05-14T09:32:34;101697.63;;;22.37;nan
14343;BME280;7255;53.596;9.960;2023-05-14T09:35:08;101697.78;;;22.61;nan
14343;BME280;7255;53.596;9.960;2023-05-14T09:37:36;101699.09;;;22.69;nan
14343;BME280;7255;53.596;9.960;2023-05-14T09:40:05;101695.75;;;22.22;nan
14343;BME280;7255;53.596;9.960;2023-05-14T09:42:33;101683.75;;;22.08;nan
14343;BME280;7255;53.596;9.960;2023-05-14T09:44:59;101683.19;;;22.11;nan
14343;BME280;7255;53.596;9.960;2023-05-14T09:47:25;101690.53;;;22.31;nan
14343;BME280;7255;53.596;9.960;2023-05-14T09:49:52;101694.25;;;22.56;nan
14343;BME280;7255;53.596;9.960;2023-05-14T09:52:18;101684.81;;;22.12;nan
14343;BME280;7255;53.596;9.960;2023-05-14T09:54:47;101685.09;;;22.16;nan
14343;BME280;7255;53.596;9.960;2023-05-14T09:57:13;101683.03;;;22.52;nan
14343;BME280;7255;53.596;9.960;2023-05-14T09:59:39;101678.53;;;22.77;nan
14343;BME280;7255;53.596;9.960;2023-05-14T10:02:14;101676.63;;;22.72;nan
14343;BME280;7255;53.596;9.960;2023-05-14T10:04:41;101668.03;;;22.84;nan
14343;BME280;7255;53.596;9.960;2023-05-14T10:07:08;101673.41;;;23.04;nan
14343;BME280;7255;53.596;9.960;2023-05-14T10:09:37;101680.34;;;22.92;nan
14343;BME280;7255;53.596;9.960;2023-05-14T10:12:07;101670.84;;;23.13;nan
14343;BME280;7255;53.596;9.960;2023-05-14T10:14:37;101661.47;;;23.24;nan
14343;BME280;7255;53.596;9.960;2023-05-14T10:17:06;101654.03;;;23.54;nan
14343;BME280;7255;53.596;9.960;2023-05-14T10:19:42;101656.53;;;23.80;nan
14343;BME280;7255;53.596;9.960;2023-05-14T10:22:14;101679.91;;;23.72;nan
14343;BME280;7255;53.596;9.960;2023-05-14T10:24:43;101665.62;;;23.99;nan
14343;BME280;7255;53.596;9.960;2023-05-14T10:27:11;101658.28;;;23.95;nan
14343;BME280;7255;53.596;9.960;2023-05-14T10:29:37;101653.25;;;23.78;nan
14343;BME280;7255;53.596;9.960;2023-05-14T10:32:05;101654.31;;;24.06;nan
14343;BME280;7255;53.596;9.960;2023-05-14T10:34:33;101645.31;;;23.76;nan
14343;BME280;7255;53.596;9.960;2023-05-14T10:37:03;101647.37;;;24.33;nan
14343;BME280;7255;53.596;9.960;2023-05-14T10:39:39;101652.88;;;24.33;nan
14343;BME280;7255;53.596;9.960;2023-05-14T10:42:07;101652.72;;;24.43;nan
14343;BME280;7255;53.596;9.960;2023-05-14T10:44:34;101643.72;;;24.37;nan
14343;BME280;7255;53.596;9.960;2023-05-14T10:47:04;101643.25;;;24.54;nan
14343;BME280;7255;53.596;9.960;2023-05-14T10:49:32;101642.25;;;24.26;nan
14343;BME280;7255;53.596;9.960;2023-05-14T10:51:59;101628.22;;;24.28;nan
14343;BME280;7255;53.596;9.960;2023-05-14T10:54:26;101643.00;;;24.51;nan
14343;BME280;7255;53.596;9.960;2023-05-14T10:56:53;101631.84;;;24.23;nan
14343;BME280;7255;53.596;9.960;2023-05-14T10:59:19;101641.88;;;24.33;nan
14343;BME280;7255;53.596;9.960;2023-05-14T11:01:47;101632.47;;;24.58;nan
14343;BME280;7255;53.596;9.960;2023-05-14T11:04:17;101633.69;;;25.04;nan
14343;BME280;7255;53.596;9.960;2023-05-14T11:06:45;101632.78;;;25.41;nan
14343;BME280;7255;53.596;9.960;2023-05-14T11:09:12;101634.84;;;25.63;nan
14343;BME280;7255;53.596;9.960;2023-05-14T11:11:38;101631.19;;;25.82;nan
14343;BME280;7255;53.596;9.960;2023-05-14T11:14:05;101629.53;;;25.67;nan
14343;BME280;7255;53.596;9.960;2023-05-14T11:16:31;101627.09;;;25.79;nan
14343;BME280;7255;53.596;9.960;2023-05-14T11:19:03;101625.66;;;26.09;nan
14343;BME280;7255;53.596;9.960;2023-05-14T11:21:30;101616.69;;;26.18;nan
14343;BME280;7255;53.596;9.960;2023-05-14T11:23:58;101623.41;;;26.11;nan
14343;BME280;7255;53.596;9.960;2023-05-14T11:26:24;101613.81;;;26.23;nan
14343;BME280;7255;53.596;9.960;2023-05-14T11:28:51;101618.47;;;26.36;nan
14343;BME280;7255;53.596;9.960;2023-05-14T11:31:17;101613.59;;;26.33;nan
14343;BME280;7255;53.596;9.960;2023-05-14T11:33:44;101623.22;;;26.22;nan
14343;BME280;7255;53.596;9.960;2023-05-14T11:36:11;101613.16;;;26.03;nan
14343;BME280;7255;53.596;9.960;2023-05-14T11:38:45;101609.91;;;26.38;nan
14343;BME280;7255;53.596;9.960;2023-05-14T11:41:13;101615.44;;;26.24;nan
14343;BME280;7255;53.596;9.960;2023-05-14T11:43:39;101597.91;;;26.20;nan
14343;BME280;7255;53.596;9.960;2023-05-14T11:46:06;101606.63;;;26.36;nan
14343;BME280;7255;53.596;9.960;2023-05-14T11:48:32;101592.44;;;25.78;nan
14343;BME280;7255;53.596;9.960;2023-05-14T11:50:58;101596.37;;;26.50;nan
14343;BME280;7255;53.596;9.960;2023-05-14T11:53:28;101597.75;;;26.75;nan
14343;BME280;7255;53.596;9.960;2023-05-14T11:55:55;101592.06;;;27.03;nan
14343;BME280;7255;53.596;9.960;2023-05-14T11:58:23;101593.06;;;27.07;nan
14343;BME280;7255;53.596;9.960;2023-05-14T12:00:49;101587.13;;;26.46;nan
14343;BME280;7255;53.596;9.960;2023-05-14T12:03:17;101586.00;;;26.92;nan
14343;BME280;7255;53.596;9.960;2023-05-14T12:05:54;101592.28;;;27.38;nan
14343;BME280;7255;53.596;9.960;2023-05-14T12:08:21;101595.44;;;27.22;nan
14343;BME280;7255;53.596;9.960;2023-05-14T12:10:49;101597.88;;;26.93;nan
14343;BME280;7255;53.596;9.960;2023-05-14T12:13:15;101590.94;;;26.36;nan
14343;BME280;7255;53.596;9.960;2023-05-14T12:15:44;101585.03;;;26.29;nan
14343;BME280;7255;53.596;9.960;2023-05-14T12:18:11;101583.75;;;26.49;nan
14343;BME280;7255;53.596;9.960;2023-05-14T12:20:37;101578.63;;;26.56;nan
14343;BME280;7255;53.596;9.960;2023-05-14T12:23:03;101568.81;;;26.64;nan
14343;BME280;7255;53.596;9.960;2023-05-14T12:25:31;101569.94;;;26.85;nan
14343;BME280;7255;53.596;9.960;2023-05-14T12:27:59;101557.19;;;26.98;nan
14343;BME280;7255;53.596;9.960;2023-05-14T12:30:26;101556.38;;;27.29;nan
14343;BME280;7255;53.596;9.960;2023-05-14T12:32:52;101552.28;;;26.64;nan
14343;BME280;7255;53.596;9.960;2023-05-14T12:35:19;101559.16;;;26.75;nan
14343;BME280;7255;53.596;9.960;2023-05-14T12:37:45;101543.50;;;27.24;nan
14343;BME280;7255;53.596;9.960;2023-05-14T12:40:12;101536.00;;;27.48;nan
14343;BME280;7255;53.596;9.960;2023-05-14T12:42:38;101535.19;;;27.16;nan
14343;BME280;7255;53.596;9.960;2023-05-14T12:45:07;101533.50;;;27.29;nan
14343;BME280;7255;53.596;9.960;2023-05-14T12:47:33;101541.63;;;27.02;nan
14343;BME280;7255;53.596;9.960;2023-05-14T12:50:00;101531.50;;;27.20;nan
14343;BME280;7255;53.596;9.960;2023-05-14T12:52:26;101532.47;;;27.24;nan
14343;BME280;7255;53.596;9.960;2023-05-14T12:54:52;101531.75;;;27.41;nan
14343;BME280;7255;53.596;9.960;2023-05-14T12:57:19;101531.47;;;27.52;nan
14343;BME280;7255;53.596;9.960;2023-05-14T12:59:45;101531.06;;;27.27;nan
14343;BME280;7255;53.596;9.960;2023-05-14T13:02:12;101529.84;;;27.19;nan
14343;BME280;7255;53.596;9.960;2023-05-14T13:04:39;101529.66;;;27.47;nan
14343;BME280;7255;53.596;9.960;2023-05-14T13:07:05;101530.84;;;27.72;nan
14343;BME280;7255;53.596;9.960;2023-05-14T13:09:33;101523.06;;;27.74;nan
14343;BME280;7255;53.596;9.960;2023-05-14T13:11:59;101520.97;;;27.80;nan
14343;BME280;7255;53.596;9.960;2023-05-14T13:14:25;101514.28;;;27.63;nan
14343;BME280;7255;53.596;9.960;2023-05-14T13:16:52;101509.16;;;27.31;nan
14343;BME280;7255;53.596;9.960;2023-05-14T13:19:19;101506.88;;;26.93;nan
14343;BME280;7255;53.596;9.960;2023-05-14T13:21:45;101498.72;;;25.61;nan